This is the latest recevied weather packets stored in our database for station/object N7AWM. If no packets are shown the sender has not sent any weather packets the latest 10 day(s).
| Time | Temp. | Humidity | Pressure | Rain* | Wind** | Luminosity | Snow |
|---|---|---|---|---|---|---|---|
| 1777644831 | 11.67° C | 61% | 1014.9 hPa | 0 mm | - | - | - |
| 1777643991 | 10.56° C | 62% | 1014.7 hPa | 0 mm | - | - | - |
| 1777643151 | 10° C | 64% | 1014.6 hPa | 0 mm | - | - | - |
| 1777642311 | 8.33° C | 71% | 1014.6 hPa | 0 mm | - | - | - |
| 1777641471 | 7.78° C | 69% | 1014.4 hPa | 0 mm | - | - | - |
| 1777640631 | 7.78° C | 69% | 1014.3 hPa | 0 mm | - | - | - |
| 1777639791 | 7.78° C | 70% | 1014.3 hPa | 0 mm | - | - | - |
| 1777638951 | 7.22° C | 70% | 1014.3 hPa | 0 mm | - | - | - |
| 1777638111 | 7.22° C | 69% | 1014.2 hPa | 0 mm | - | - | - |
| 1777637271 | 8.33° C | 67% | 1014.3 hPa | 0 mm | - | - | - |
| 1777636432 | 8.33° C | 66% | 1014.3 hPa | 0 mm | - | - | - |
| 1777635592 | 8.89° C | 64% | 1014.4 hPa | 0 mm | - | - | - |
| 1777634752 | 8.89° C | 68% | 1014.5 hPa | 0 mm | - | - | - |
| 1777633912 | 7.78° C | 68% | 1014.4 hPa | 0 mm | - | - | - |
| 1777633072 | 7.78° C | 68% | 1014.5 hPa | 0 mm | - | - | - |
| 1777632232 | 8.89° C | 65% | 1014.5 hPa | 0 mm | - | - | - |
| 1777631392 | 9.44° C | 62% | 1014.5 hPa | 0 mm | - | - | - |
| 1777630552 | 9.44° C | 64% | 1014.5 hPa | 0 mm | - | - | - |
| 1777629712 | 9.44° C | 64% | 1014.4 hPa | 0 mm | - | - | - |
| 1777628872 | 9.44° C | 62% | 1014.5 hPa | 0 mm | - | - | - |
| 1777628032 | 10° C | 61% | 1014.5 hPa | 0 mm | - | - | - |
| 1777627192 | 9.44° C | 62% | 1014.6 hPa | 0 mm | - | - | - |
| 1777626352 | 9.44° C | 62% | 1014.7 hPa | 0 mm | - | - | - |
| 1777625512 | 10.56° C | 59% | 1014.7 hPa | 0 mm | - | - | - |
| 1777624673 | 11.11° C | 57% | 1014.8 hPa | 0 mm | - | - | - |
* Rain latest hour (hover to see other rain measurements)
** Current wind speed in m/s (hover to see current wind gust speed)